Terminal Aerodrome Forecast
Issued by NWS

Home | Current Version | Previous Version | Text Only | Print | Product List | Glossary On
Versions: 1 2 3 4 5 6 7 8 9 10 11 12 13
000
FTUS42 KTBW 301100
TAFLAL
TAF
KLAL 301120Z 3012/3112 VRB03KT P6SM FEW020 SCT250
     FM301400 VRB03KT P6SM SCT025 SCT250
     FM301700 27006KT P6SM SCT040 SCT250
     FM302300 30005KT P6SM FEW040 SCT250
     FM310100 VRB03KT P6SM SKC
     FM311000 VRB03KT 5SM BR FEW005=

USA.gov is the U.S. government's official web portal to all federal, state and local government web resources and services.